Terminal Aerodrome Forecast
Issued by NWS

Home | Current Version | Previous Version | Graphics & Text | Print | Product List | Glossary On
Versions: 1 2 3 4 5 6 7 8 9 10 11 12 13 14 15 16 17 18 19 20 21 22 23 24 25 26 27
000
FTUS43 KBIS 042252 AAB
TAFMOT
TAF AMD
KMOT 042252Z 0423/0518 12007KT 4SM TSRA BKN050CB OVC100
     FM050200 01010KT P6SM SCT035 OVC100
     FM051200 35013KT P6SM -SHRA VCTS SCT035 BKN060CB=

USA.gov is the U.S. government's official web portal to all federal, state and local government web resources and services.